This is the latest recevied weather packets stored in our database for station/object BMCB-28. If no packets are shown the sender has not sent any weather packets the latest 10 day(s).
| Time | Temp. | Humidity | Pressure | Rain* | Wind** | Luminosity | Snow |
|---|---|---|---|---|---|---|---|
| 1778205647 | 5.56° C | 96% | 1019.2 hPa | 0 mm | - | 0 W/m² | - |
| 1778201447 | 6.11° C | 95% | 1019.2 hPa | 0 mm | - | 0 W/m² | - |
| 1778200847 | 6.11° C | 95% | 1019.3 hPa | 0 mm | - | 0 W/m² | - |
| 1778195458 | 6.67° C | 93% | 1019.6 hPa | 0 mm | - | 0 W/m² | - |
| 1778187664 | 7.22° C | 92% | 1019.5 hPa | 0 mm | - | 0 W/m² | - |
| 1778182862 | 8.33° C | 87% | 1018.9 hPa | 0 mm | - | 0 W/m² | - |
| 1778182264 | 8.33° C | 87% | 1018.8 hPa | 0 mm | - | 0 W/m² | - |
| 1778181658 | 8.33° C | 89% | 1018.8 hPa | 0 mm | - | 0 W/m² | - |
| 1778178066 | 9.44° C | 83% | 1018.4 hPa | 0 mm | - | 16 W/m² | - |
| 1778176858 | 10° C | 79% | 1018.3 hPa | 0 mm | - | 28 W/m² | - |
| 1778151650 | 10° C | 82% | 1017.7 hPa | 0 mm | - | 320 W/m² | - |
| 1778149250 | 8.89° C | 84% | 1017.8 hPa | 0 mm | - | 224 W/m² | - |
| 1778142650 | 8.33° C | 89% | 1017.1 hPa | 0 mm | - | 248 W/m² | - |
| 1778133648 | 6.11° C | 98% | 1016.5 hPa | 0 mm | - | 96 W/m² | - |
| 1778131245 | 5° C | 98% | 1016.3 hPa | 0 mm | - | 30 W/m² | - |
| 1778128247 | 5° C | 99% | 1015.8 hPa | 0.25 mm | - | 6 W/m² | - |
| 1778124649 | 4.44° C | 99% | 1015.4 hPa | 0 mm | - | 0 W/m² | - |
| 1778122847 | 4.44° C | 99% | 1015.2 hPa | 0 mm | - | 0 W/m² | - |
| 1778122248 | 4.44° C | 99% | 1015.1 hPa | 0 mm | - | 0 W/m² | - |
| 1778121054 | 4.44° C | 10% | 1015.1 hPa | 0 mm | - | - | - |
| 1778115045 | 5° C | 10% | 1014.6 hPa | 0 mm | - | - | - |
| 1778113850 | 5° C | 10% | 1014.4 hPa | 0 mm | - | - | - |
| 1778106057 | 5.56° C | 10% | 1013.7 hPa | 0.25 mm | - | - | - |
| 1778104865 | 5.56° C | 10% | 1013.5 hPa | 0 mm | - | - | - |
| 1778099459 | 5.56° C | 10% | 1013 hPa | 0 mm | - | - | - |
* Rain latest hour (hover to see other rain measurements)
** Current wind speed in m/s (hover to see current wind gust speed)